Startpagina
METAR-TAF:

METAR-TAF

Vliegvelden :

Koeweit, Koeweit

breedte: 29-13N, lengte: 047-59E, hoogte: 55 m

Actueel weer

Dit bericht is 40 minuten geleden gemaakt, om 03:29 UTC
Weinig wind
Temperatuur
Druk
Zicht: 4000 m
Verspreide wolken op 3000 ft, Cumulonimbus.
Gebroken wolken op 8000 ft
onweer, lichte regen

METAR: OKBK 240329Z 00000KT 4000 -TSRA SCT030CB BKN080

Tijdstip: 07:09 (04:09 UTC)

Verwachting

Dit bericht is 5 uur en het 24 minuten geleden gemaakt, om 22:45 UTC
Verwachting geldig van 24 om 00 UTC tot 25 om 06 UTC
Wind 10 kt uit het zuidzuidoosten met uitschieters tot 20 kt
Zicht 10 km of meer
Verspreide wolken op 4000 ft
Gebroken wolken op 8000 ft
Tijdelijke
van 24 om 00 UTC tot 24 om 14 UTC
Zicht: 4000 m
Weinig wolken op 2500 ft, Cumulonimbus.
onweer, regen

TAF: OKBK 232245Z 2400/2506 16010G20KT 9999 SCT040 BKN080 TEMPO 2400/2414 4000 TSRA FEW025CB

Waarnemingen en weersverwachtingen van meer dan 4000 vliegvelden (METAR en TAF).

De beschikbare stations zijn de gele en rode punten op de kaart.

Ga met uw muis naar het station om de naam te zien.

Klik dan om waarnemingen en weersverwachtingen te zien.

kaart wijzigen: klik op de groene knoppen met een zwart kruis om in te zoomen, op de groene knop met een streepje om uit te zoomen of op de groene pijlen voor aangrenzende kaarten.


METAR-TAF: